x

Ilm2 - 5 Miles Se Of Wrightsville Beach, Nc (41038) Weather Station

3:00 - Wed 26th Nov 2014 All times are EST. -5 hours from GMT.

  • Wind
    7mph, 11mph gusts
  • Sea Temp 59°f
  • Luft Temp 62°f
  • Sea Pressure 1008.5mb
  • Ilm2 - 5 Miles Se Of Wrightsville Beach, Nc
  • Ilm2 - 5 Miles Se Of Wrightsville Beach, Nc

More Historic Weather Station data

Upgrade to MSW Pro to gain access to the past 30 days of data for over 8000 Wavebouys and Weather Stations around the globe.

Join Pro

Comparision Forecast

View Surf forecast
   
Mi 11/26 3:00 7 11 mph 1008.5mb 59f 62f
2:00 11 16 mph 1009.6mb 59f 61f
1:00 13 18 mph 1011.4mb 59f 59f
12:00 20 27 mph 1013.3mb 59f 59f
Di 11/25 11:00 13 16 mph 1015mb 59f 58f
10:00 9
mph
1016.5mb 59f 58f
9:00 7
mph
1017.3mb 59f 58f
8:00 9 11 mph 1017.9mb 59f 59f
7:00 4 7 mph 1017.6mb 59f 58f
6:00 2 4 mph 1016.6mb 59f 58f
5:00 4
mph
1016.1mb 59f 58f
4:00 7
mph
1015.9mb 59f 58f
3:00 9
mph
1015.4mb 59f 58f
2:00 2 4 mph 1015.9mb 59f 60f
1:00 9 11 mph 1016.3mb 59f 61f
12:00 9 11 mph 1016.5mb 60f 62f
11:00 7 9 mph 1017.3mb 59f 60f
10:00 4 7 mph 1018.1mb 59f 59f
9:00 7 9 mph 1017.4mb 59f 61f
8:00 2 4 mph 1016.6mb 59f 58f
7:00 7 9 mph 1015.8mb 59f 58f
6:00 7 9 mph 1015.3mb 59f 58f
5:00 7
mph
1014.6mb 59f 58f
4:00 4 7 mph 1013.8mb 59f 59f
3:00 7 9 mph 1015.4mb 59f 59f
2:00 7 11 mph 1015.1mb 59f 59f
1:00 9 11 mph 1014.6mb 59f 59f
12:00 9 11 mph 1014.5mb 59f 58f
Mo 11/24 11:00 9 11 mph 1013.8mb 59f 59f
10:00 9 11 mph 1014.4mb 59f 59f
9:00 4 7 mph 1014.1mb 59f 60f
8:00 16 18 mph 1013.7mb 59f 61f
7:00 9 13 mph 1013.2mb 59f 60f
6:00 9 11 mph 1012.5mb 59f 60f
5:00 11 13 mph 1011.5mb 60f 60f
4:00 9 11 mph 1011.5mb 60f 60f
3:00 11 13 mph 1011.3mb 60f 61f
2:00 9 13 mph 1011mb 60f 62f
1:00 9 11 mph 1011.5mb 60f 61f
12:00 13 18 mph 1011.7mb 60f 62f
11:00 11 13 mph 1012.6mb 60f 62f
10:00 11 16 mph 1012.5mb 60f 61f
9:00 11 13 mph 1012.5mb 60f 62f
8:00 9 11 mph 1011.4mb 60f 59f
7:00 9 11 mph 1010.8mb 60f 59f
6:00 11 13 mph 1010.4mb 60f 59f
5:00 9 11 mph 1010mb 59f 59f
4:00 4 7 mph 1009.6mb 60f 59f
3:00 9 13 mph 1009.8mb 60f 60f
2:00 13 18 mph 1009.4mb 60f 60f
1:00 11 16 mph 1011mb 60f 64f
12:00 16 20 mph 1010.3mb 60f 61f
So 11/23 11:00 22 27 mph 1010.2mb 60f 62f
10:00 25 29 mph 1011.1mb 60f 63f
9:00 27 31 mph 1011.5mb 60f 64f
8:00 27 31 mph 1012.8mb 60f 63f
7:00 25 29 mph 1012.9mb 60f 62f
6:00 25 29 mph 1014mb 60f 63f
5:00 22 29 mph 1014.3mb 60f 62f
4:00 25 29 mph 1015.4mb 60f 62f
3:00 20 27 mph 1016.3mb 60f 62f
2:00 20 22 mph 1017.2mb 59f 62f
1:00 20 22 mph 1018.7mb 60f 59f
12:00 13
mph
1020.9mb 60f 59f
11:00 7 9 mph 1022.1mb 60f 58f
10:00 9 11 mph 1023.7mb 60f 57f
9:00 4 7 mph 1024.1mb 60f 56f
8:00 4 7 mph 1024.1mb 60f 58f
7:00 7 9 mph 1024mb 60f 58f
6:00 4 7 mph 1024.5mb 60f 56f
5:00 4 7 mph 1024.2mb 59f 58f
4:00 2 7 mph 1024.5mb 59f 59f
3:00 4 7 mph 1024.9mb 59f 58f
2:00 9
mph
1025.2mb 59f 56f
1:00 9 11 mph 1025.5mb 59f 56f
12:00 11 13 mph 1026.4mb 59f 56f
Sa 11/22 11:00 9 11 mph 1026.7mb 59f 55f
10:00 11 13 mph 1027.4mb 60f 56f
9:00 9 11 mph 1027.9mb 60f 56f
8:00 13 16 mph 1027.8mb 60f 55f
7:00 11 13 mph 1028.5mb 60f 54f
6:00 13 16 mph 1028.8mb 60f 53f
5:00 11 13 mph 1029.3mb 60f 53f
4:00 11 13 mph 1029.4mb 60f 54f
3:00 9 11 mph 1029.9mb 60f 55f
2:00 11 13 mph 1030.8mb 60f 54f
1:00 11 16 mph 1031.7mb 60f 53f
12:00 13 18 mph 1032.8mb 60f 52f
11:00 13 16 mph 1033.6mb 60f 52f
10:00 16 18 mph 1034.1mb 60f 50f